sensor_id;sensor_type;location;lat;lon;timestamp;temperature;humidity
32217;DHT22;18709;51.140;4.088;2022-09-12T00:00:30;19.10;83.70
32217;DHT22;18709;51.140;4.088;2022-09-12T00:02:57;19.00;83.70
32217;DHT22;18709;51.140;4.088;2022-09-12T00:05:23;19.00;83.60
32217;DHT22;18709;51.140;4.088;2022-09-12T00:07:49;19.00;83.60
32217;DHT22;18709;51.140;4.088;2022-09-12T00:10:16;19.00;83.60
32217;DHT22;18709;51.140;4.088;2022-09-12T00:12:42;18.90;83.70
32217;DHT22;18709;51.140;4.088;2022-09-12T00:15:09;19.00;83.60
32217;DHT22;18709;51.140;4.088;2022-09-12T00:17:36;18.90;83.70
32217;DHT22;18709;51.140;4.088;2022-09-12T00:20:07;18.90;83.70
32217;DHT22;18709;51.140;4.088;2022-09-12T00:22:34;18.90;83.70
32217;DHT22;18709;51.140;4.088;2022-09-12T00:25:00;18.90;83.60
32217;DHT22;18709;51.140;4.088;2022-09-12T00:27:26;18.90;83.30
32217;DHT22;18709;51.140;4.088;2022-09-12T00:29:52;18.90;83.50
32217;DHT22;18709;51.140;4.088;2022-09-12T00:32:19;18.80;83.40
32217;DHT22;18709;51.140;4.088;2022-09-12T00:34:44;18.80;83.30
32217;DHT22;18709;51.140;4.088;2022-09-12T00:37:10;18.80;83.30
32217;DHT22;18709;51.140;4.088;2022-09-12T00:39:36;18.80;83.20
32217;DHT22;18709;51.140;4.088;2022-09-12T00:42:02;18.80;83.30
32217;DHT22;18709;51.140;4.088;2022-09-12T00:47:13;18.80;83.50
32217;DHT22;18709;51.140;4.088;2022-09-12T00:54:38;18.70;83.60
32217;DHT22;18709;51.140;4.088;2022-09-12T00:57:07;18.70;83.80
32217;DHT22;18709;51.140;4.088;2022-09-12T00:59:51;18.70;83.90
32217;DHT22;18709;51.140;4.088;2022-09-12T01:02:17;18.70;84.00
32217;DHT22;18709;51.140;4.088;2022-09-12T01:04:43;18.60;84.00
32217;DHT22;18709;51.140;4.088;2022-09-12T01:07:10;18.60;84.30
32217;DHT22;18709;51.140;4.088;2022-09-12T01:09:37;18.60;84.20
32217;DHT22;18709;51.140;4.088;2022-09-12T01:12:04;18.60;84.10
32217;DHT22;18709;51.140;4.088;2022-09-12T01:14:30;18.60;83.90
32217;DHT22;18709;51.140;4.088;2022-09-12T01:16:57;18.60;84.10
32217;DHT22;18709;51.140;4.088;2022-09-12T01:22:20;18.50;84.20
32217;DHT22;18709;51.140;4.088;2022-09-12T01:30:39;18.50;84.30
32217;DHT22;18709;51.140;4.088;2022-09-12T01:33:15;18.50;84.10
32217;DHT22;18709;51.140;4.088;2022-09-12T01:36:10;18.50;84.20
32217;DHT22;18709;51.140;4.088;2022-09-12T01:46:43;18.30;84.50
32217;DHT22;18709;51.140;4.088;2022-09-12T01:49:44;18.30;84.90
32217;DHT22;18709;51.140;4.088;2022-09-12T01:52:28;18.20;85.00
32217;DHT22;18709;51.140;4.088;2022-09-12T01:57:39;18.30;84.70
32217;DHT22;18709;51.140;4.088;2022-09-12T02:00:09;18.20;84.90
32217;DHT22;18709;51.140;4.088;2022-09-12T02:02:52;18.20;85.10
32217;DHT22;18709;51.140;4.088;2022-09-12T02:05:32;18.10;85.20
32217;DHT22;18709;51.140;4.088;2022-09-12T02:08:06;18.20;85.40
32217;DHT22;18709;51.140;4.088;2022-09-12T02:10:40;18.20;85.60
32217;DHT22;18709;51.140;4.088;2022-09-12T02:13:33;18.20;85.60
32217;DHT22;18709;51.140;4.088;2022-09-12T02:16:03;18.10;85.70
32217;DHT22;18709;51.140;4.088;2022-09-12T02:18:31;18.10;85.90
32217;DHT22;18709;51.140;4.088;2022-09-12T02:20:59;18.20;85.80
32217;DHT22;18709;51.140;4.088;2022-09-12T02:23:28;18.10;85.80
32217;DHT22;18709;51.140;4.088;2022-09-12T02:26:09;18.10;86.00
32217;DHT22;18709;51.140;4.088;2022-09-12T02:28:40;18.10;86.00
32217;DHT22;18709;51.140;4.088;2022-09-12T02:37:44;18.10;86.30
32217;DHT22;18709;51.140;4.088;2022-09-12T02:40:11;18.10;86.30
32217;DHT22;18709;51.140;4.088;2022-09-12T02:42:37;18.00;86.50
32217;DHT22;18709;51.140;4.088;2022-09-12T02:45:03;18.00;86.60
32217;DHT22;18709;51.140;4.088;2022-09-12T02:47:36;18.00;86.50
32217;DHT22;18709;51.140;4.088;2022-09-12T02:50:03;18.00;86.50
32217;DHT22;18709;51.140;4.088;2022-09-12T02:52:30;17.90;86.70
32217;DHT22;18709;51.140;4.088;2022-09-12T02:54:57;17.90;86.70
32217;DHT22;18709;51.140;4.088;2022-09-12T02:57:23;17.90;86.90
32217;DHT22;18709;51.140;4.088;2022-09-12T02:59:52;17.90;87.00
32217;DHT22;18709;51.140;4.088;2022-09-12T03:02:31;17.80;86.90
32217;DHT22;18709;51.140;4.088;2022-09-12T03:05:12;17.80;87.00
32217;DHT22;18709;51.140;4.088;2022-09-12T03:19:05;17.60;87.70
32217;DHT22;18709;51.140;4.088;2022-09-12T03:21:47;17.70;87.00
32217;DHT22;18709;51.140;4.088;2022-09-12T03:27:10;17.70;86.50
32217;DHT22;18709;51.140;4.088;2022-09-12T03:29:38;17.80;86.30
32217;DHT22;18709;51.140;4.088;2022-09-12T03:32:06;17.70;86.30
32217;DHT22;18709;51.140;4.088;2022-09-12T03:34:32;17.60;86.50
32217;DHT22;18709;51.140;4.088;2022-09-12T03:36:57;17.70;86.60
32217;DHT22;18709;51.140;4.088;2022-09-12T03:39:24;17.60;86.70
32217;DHT22;18709;51.140;4.088;2022-09-12T03:41:51;17.60;87.00
32217;DHT22;18709;51.140;4.088;2022-09-12T03:44:17;17.60;87.10
32217;DHT22;18709;51.140;4.088;2022-09-12T03:46:43;17.60;87.20
32217;DHT22;18709;51.140;4.088;2022-09-12T03:49:09;17.70;87.00
32217;DHT22;18709;51.140;4.088;2022-09-12T03:51:36;17.60;87.20
32217;DHT22;18709;51.140;4.088;2022-09-12T03:54:02;17.60;87.00
32217;DHT22;18709;51.140;4.088;2022-09-12T03:56:28;17.60;86.90
32217;DHT22;18709;51.140;4.088;2022-09-12T03:58:54;17.60;87.20
32217;DHT22;18709;51.140;4.088;2022-09-12T04:01:20;17.60;87.50
32217;DHT22;18709;51.140;4.088;2022-09-12T04:03:48;17.60;87.60
32217;DHT22;18709;51.140;4.088;2022-09-12T04:06:20;17.50;87.80
32217;DHT22;18709;51.140;4.088;2022-09-12T04:08:50;17.60;87.60
32217;DHT22;18709;51.140;4.088;2022-09-12T04:11:17;17.50;87.60
32217;DHT22;18709;51.140;4.088;2022-09-12T04:13:44;17.50;87.70
32217;DHT22;18709;51.140;4.088;2022-09-12T04:16:12;17.60;87.40
32217;DHT22;18709;51.140;4.088;2022-09-12T04:18:38;17.50;87.40
32217;DHT22;18709;51.140;4.088;2022-09-12T04:21:07;17.60;87.10
32217;DHT22;18709;51.140;4.088;2022-09-12T04:23:33;17.50;87.10
32217;DHT22;18709;51.140;4.088;2022-09-12T04:26:01;17.50;87.20
32217;DHT22;18709;51.140;4.088;2022-09-12T04:28:28;17.50;87.20
32217;DHT22;18709;51.140;4.088;2022-09-12T04:30:54;17.50;87.40
32217;DHT22;18709;51.140;4.088;2022-09-12T04:33:20;17.40;87.40
32217;DHT22;18709;51.140;4.088;2022-09-12T04:35:46;17.40;87.30
32217;DHT22;18709;51.140;4.088;2022-09-12T04:38:12;17.40;87.30
32217;DHT22;18709;51.140;4.088;2022-09-12T04:40:38;17.40;87.40
32217;DHT22;18709;51.140;4.088;2022-09-12T04:43:04;17.40;87.40
32217;DHT22;18709;51.140;4.088;2022-09-12T04:45:32;17.40;87.20
32217;DHT22;18709;51.140;4.088;2022-09-12T04:47:58;17.30;87.20
32217;DHT22;18709;51.140;4.088;2022-09-12T04:50:24;17.40;87.00
32217;DHT22;18709;51.140;4.088;2022-09-12T04:52:50;17.30;86.80
32217;DHT22;18709;51.140;4.088;2022-09-12T04:55:16;17.30;86.80
32217;DHT22;18709;51.140;4.088;2022-09-12T04:57:42;17.30;87.00
32217;DHT22;18709;51.140;4.088;2022-09-12T05:00:08;17.30;87.10
32217;DHT22;18709;51.140;4.088;2022-09-12T05:02:37;17.20;87.00
32217;DHT22;18709;51.140;4.088;2022-09-12T05:05:04;17.20;87.00
32217;DHT22;18709;51.140;4.088;2022-09-12T05:07:30;17.20;87.00
32217;DHT22;18709;51.140;4.088;2022-09-12T05:09:56;17.20;86.80
32217;DHT22;18709;51.140;4.088;2022-09-12T05:12:22;17.20;86.80
32217;DHT22;18709;51.140;4.088;2022-09-12T05:14:48;17.20;86.60
32217;DHT22;18709;51.140;4.088;2022-09-12T05:17:14;17.20;86.70
32217;DHT22;18709;51.140;4.088;2022-09-12T05:19:39;17.10;86.90
32217;DHT22;18709;51.140;4.088;2022-09-12T05:22:05;17.10;87.00
32217;DHT22;18709;51.140;4.088;2022-09-12T05:24:31;17.10;87.00
32217;DHT22;18709;51.140;4.088;2022-09-12T05:26:57;17.10;87.00
32217;DHT22;18709;51.140;4.088;2022-09-12T05:29:23;17.10;86.80
32217;DHT22;18709;51.140;4.088;2022-09-12T05:31:50;17.10;87.00
32217;DHT22;18709;51.140;4.088;2022-09-12T05:34:17;17.10;87.20
32217;DHT22;18709;51.140;4.088;2022-09-12T05:36:42;17.10;87.60
32217;DHT22;18709;51.140;4.088;2022-09-12T05:39:08;17.10;88.00
32217;DHT22;18709;51.140;4.088;2022-09-12T05:41:35;17.10;88.00
32217;DHT22;18709;51.140;4.088;2022-09-12T05:44:03;17.00;88.10
32217;DHT22;18709;51.140;4.088;2022-09-12T05:46:34;17.00;88.10
32217;DHT22;18709;51.140;4.088;2022-09-12T05:49:11;17.10;88.20
32217;DHT22;18709;51.140;4.088;2022-09-12T05:51:39;17.10;88.00
32217;DHT22;18709;51.140;4.088;2022-09-12T05:54:08;17.10;88.00
32217;DHT22;18709;51.140;4.088;2022-09-12T05:56:38;17.10;88.20
32217;DHT22;18709;51.140;4.088;2022-09-12T05:59:08;17.10;88.20
32217;DHT22;18709;51.140;4.088;2022-09-12T06:01:36;17.10;88.40
32217;DHT22;18709;51.140;4.088;2022-09-12T06:04:04;17.20;88.60
32217;DHT22;18709;51.140;4.088;2022-09-12T06:06:33;17.30;89.60
32217;DHT22;18709;51.140;4.088;2022-09-12T06:09:01;17.30;90.10
32217;DHT22;18709;51.140;4.088;2022-09-12T06:11:31;17.40;90.30
32217;DHT22;18709;51.140;4.088;2022-09-12T06:13:58;17.60;90.40
32217;DHT22;18709;51.140;4.088;2022-09-12T06:16:32;17.70;90.30
32217;DHT22;18709;51.140;4.088;2022-09-12T06:19:00;17.90;90.10
32217;DHT22;18709;51.140;4.088;2022-09-12T06:21:28;18.00;90.30
32217;DHT22;18709;51.140;4.088;2022-09-12T06:23:55;18.20;90.10
32217;DHT22;18709;51.140;4.088;2022-09-12T06:26:23;18.40;89.90
32217;DHT22;18709;51.140;4.088;2022-09-12T06:28:50;18.60;89.50
32217;DHT22;18709;51.140;4.088;2022-09-12T06:31:19;18.70;89.70
32217;DHT22;18709;51.140;4.088;2022-09-12T06:33:49;18.90;89.50
32217;DHT22;18709;51.140;4.088;2022-09-12T06:36:24;19.10;88.50
32217;DHT22;18709;51.140;4.088;2022-09-12T06:38:58;19.30;87.90
32217;DHT22;18709;51.140;4.088;2022-09-12T06:41:26;19.50;87.90
32217;DHT22;18709;51.140;4.088;2022-09-12T06:43:52;19.70;87.60
32217;DHT22;18709;51.140;4.088;2022-09-12T06:46:18;19.90;86.80
32217;DHT22;18709;51.140;4.088;2022-09-12T06:48:44;20.10;86.10
32217;DHT22;18709;51.140;4.088;2022-09-12T06:51:12;20.30;85.70
32217;DHT22;18709;51.140;4.088;2022-09-12T06:53:38;20.50;85.40
32217;DHT22;18709;51.140;4.088;2022-09-12T06:56:08;20.70;85.00
32217;DHT22;18709;51.140;4.088;2022-09-12T06:58:34;20.90;84.40
32217;DHT22;18709;51.140;4.088;2022-09-12T07:03:27;21.30;83.00
32217;DHT22;18709;51.140;4.088;2022-09-12T07:05:53;21.50;82.00
32217;DHT22;18709;51.140;4.088;2022-09-12T07:08:19;21.60;82.30
32217;DHT22;18709;51.140;4.088;2022-09-12T07:10:45;21.80;81.30
32217;DHT22;18709;51.140;4.088;2022-09-12T07:13:11;22.00;80.40
32217;DHT22;18709;51.140;4.088;2022-09-12T07:15:37;22.20;79.90
32217;DHT22;18709;51.140;4.088;2022-09-12T07:18:03;22.30;79.40
32217;DHT22;18709;51.140;4.088;2022-09-12T07:20:28;22.50;79.10
32217;DHT22;18709;51.140;4.088;2022-09-12T07:22:58;22.50;78.00
32217;DHT22;18709;51.140;4.088;2022-09-12T07:25:24;22.60;77.90
32217;DHT22;18709;51.140;4.088;2022-09-12T07:27:51;22.70;77.80
32217;DHT22;18709;51.140;4.088;2022-09-12T07:30:17;22.80;77.30
32217;DHT22;18709;51.140;4.088;2022-09-12T07:32:43;23.00;76.70
32217;DHT22;18709;51.140;4.088;2022-09-12T07:35:09;23.10;76.60
32217;DHT22;18709;51.140;4.088;2022-09-12T07:37:34;23.20;76.00
32217;DHT22;18709;51.140;4.088;2022-09-12T07:40:00;23.30;75.90
32217;DHT22;18709;51.140;4.088;2022-09-12T07:42:26;23.40;75.20
32217;DHT22;18709;51.140;4.088;2022-09-12T07:44:52;23.50;75.50
32217;DHT22;18709;51.140;4.088;2022-09-12T07:47:18;23.70;74.80
32217;DHT22;18709;51.140;4.088;2022-09-12T07:49:44;23.80;74.40
32217;DHT22;18709;51.140;4.088;2022-09-12T07:52:09;24.00;73.90
32217;DHT22;18709;51.140;4.088;2022-09-12T07:54:35;24.20;73.30
32217;DHT22;18709;51.140;4.088;2022-09-12T07:57:01;24.40;73.10
32217;DHT22;18709;51.140;4.088;2022-09-12T07:59:26;24.50;72.60
32217;DHT22;18709;51.140;4.088;2022-09-12T08:01:52;24.60;72.60
32217;DHT22;18709;51.140;4.088;2022-09-12T08:04:18;24.70;72.00
32217;DHT22;18709;51.140;4.088;2022-09-12T08:06:44;24.90;71.60
32217;DHT22;18709;51.140;4.088;2022-09-12T08:09:10;24.90;71.20
32217;DHT22;18709;51.140;4.088;2022-09-12T08:11:37;24.90;69.60
32217;DHT22;18709;51.140;4.088;2022-09-12T08:14:03;25.00;69.60
32217;DHT22;18709;51.140;4.088;2022-09-12T08:16:30;25.00;69.20
32217;DHT22;18709;51.140;4.088;2022-09-12T08:18:58;25.10;69.60
32217;DHT22;18709;51.140;4.088;2022-09-12T08:21:30;25.30;69.40
32217;DHT22;18709;51.140;4.088;2022-09-12T08:24:03;25.40;69.10
32217;DHT22;18709;51.140;4.088;2022-09-12T08:26:31;25.60;68.10
32217;DHT22;18709;51.140;4.088;2022-09-12T08:28:57;25.80;67.60
32217;DHT22;18709;51.140;4.088;2022-09-12T08:31:25;25.90;67.70
32217;DHT22;18709;51.140;4.088;2022-09-12T08:33:54;26.00;66.40
32217;DHT22;18709;51.140;4.088;2022-09-12T08:36:23;26.10;66.50
32217;DHT22;18709;51.140;4.088;2022-09-12T08:38:52;26.20;65.60
32217;DHT22;18709;51.140;4.088;2022-09-12T08:41:25;26.30;65.20
32217;DHT22;18709;51.140;4.088;2022-09-12T08:49:32;26.80;64.80
32217;DHT22;18709;51.140;4.088;2022-09-12T08:52:10;26.90;64.60
32217;DHT22;18709;51.140;4.088;2022-09-12T08:54:38;27.20;64.20
32217;DHT22;18709;51.140;4.088;2022-09-12T08:57:05;27.40;63.00
32217;DHT22;18709;51.140;4.088;2022-09-12T08:59:41;27.60;62.20
32217;DHT22;18709;51.140;4.088;2022-09-12T09:05:04;28.10;61.00
32217;DHT22;18709;51.140;4.088;2022-09-12T09:16:13;28.80;59.20
32217;DHT22;18709;51.140;4.088;2022-09-12T09:18:42;29.00;57.10
32217;DHT22;18709;51.140;4.088;2022-09-12T09:24:07;29.50;56.20
32217;DHT22;18709;51.140;4.088;2022-09-12T09:27:08;29.70;55.90
32217;DHT22;18709;51.140;4.088;2022-09-12T09:29:38;30.00;55.20
32217;DHT22;18709;51.140;4.088;2022-09-12T09:32:33;30.30;55.10
32217;DHT22;18709;51.140;4.088;2022-09-12T09:34:58;30.50;52.70
32217;DHT22;18709;51.140;4.088;2022-09-12T09:37:43;30.70;52.90
32217;DHT22;18709;51.140;4.088;2022-09-12T09:40:31;31.00;52.90
32217;DHT22;18709;51.140;4.088;2022-09-12T09:45:25;31.50;52.20
32217;DHT22;18709;51.140;4.088;2022-09-12T09:50:23;32.10;50.70
32217;DHT22;18709;51.140;4.088;2022-09-12T09:52:50;32.40;50.30
32217;DHT22;18709;51.140;4.088;2022-09-12T09:55:29;32.70;49.50
32217;DHT22;18709;51.140;4.088;2022-09-12T09:57:58;32.90;48.70
32217;DHT22;18709;51.140;4.088;2022-09-12T10:00:33;33.20;48.40
32217;DHT22;18709;51.140;4.088;2022-09-12T10:05:31;33.60;47.30
32217;DHT22;18709;51.140;4.088;2022-09-12T10:07:57;33.80;46.10
32217;DHT22;18709;51.140;4.088;2022-09-12T10:10:23;33.90;45.00
32217;DHT22;18709;51.140;4.088;2022-09-12T10:12:49;34.10;45.10
32217;DHT22;18709;51.140;4.088;2022-09-12T10:17:44;34.70;45.10
32217;DHT22;18709;51.140;4.088;2022-09-12T10:23:00;35.00;44.90
32217;DHT22;18709;51.140;4.088;2022-09-12T10:25:27;35.20;44.00
32217;DHT22;18709;51.140;4.088;2022-09-12T10:27:58;35.40;43.80
32217;DHT22;18709;51.140;4.088;2022-09-12T10:30:25;35.70;43.90
32217;DHT22;18709;51.140;4.088;2022-09-12T10:32:55;35.70;43.00
32217;DHT22;18709;51.140;4.088;2022-09-12T10:35:30;35.90;43.00
32217;DHT22;18709;51.140;4.088;2022-09-12T10:38:00;36.00;42.40
32217;DHT22;18709;51.140;4.088;2022-09-12T10:40:39;36.00;42.30
32217;DHT22;18709;51.140;4.088;2022-09-12T10:43:33;36.10;41.40
32217;DHT22;18709;51.140;4.088;2022-09-12T10:46:21;36.20;41.60
32217;DHT22;18709;51.140;4.088;2022-09-12T10:49:11;36.40;41.20
32217;DHT22;18709;51.140;4.088;2022-09-12T10:51:36;36.50;41.30
32217;DHT22;18709;51.140;4.088;2022-09-12T10:54:06;36.70;41.30
32217;DHT22;18709;51.140;4.088;2022-09-12T10:56:42;36.80;41.30
32217;DHT22;18709;51.140;4.088;2022-09-12T10:59:38;36.90;39.60
32217;DHT22;18709;51.140;4.088;2022-09-12T11:02:37;36.90;40.20
32217;DHT22;18709;51.140;4.088;2022-09-12T11:10:59;37.40;39.70
32217;DHT22;18709;51.140;4.088;2022-09-12T11:19:46;38.20;39.10
32217;DHT22;18709;51.140;4.088;2022-09-12T11:30:14;38.80;38.00
32217;DHT22;18709;51.140;4.088;2022-09-12T11:33:02;38.90;37.70
32217;DHT22;18709;51.140;4.088;2022-09-12T11:35:54;39.00;38.00
32217;DHT22;18709;51.140;4.088;2022-09-12T11:41:08;39.30;37.40
32217;DHT22;18709;51.140;4.088;2022-09-12T11:44:16;39.10;36.60
32217;DHT22;18709;51.140;4.088;2022-09-12T11:52:06;39.40;36.80
32217;DHT22;18709;51.140;4.088;2022-09-12T11:54:43;39.50;36.70
32217;DHT22;18709;51.140;4.088;2022-09-12T12:02:27;39.60;34.90
32217;DHT22;18709;51.140;4.088;2022-09-12T12:05:18;39.50;36.00
32217;DHT22;18709;51.140;4.088;2022-09-12T12:07:56;39.40;36.20
32217;DHT22;18709;51.140;4.088;2022-09-12T12:10:31;39.50;36.20
32217;DHT22;18709;51.140;4.088;2022-09-12T12:12:58;39.60;35.50
32217;DHT22;18709;51.140;4.088;2022-09-12T12:15:26;39.60;35.60
32217;DHT22;18709;51.140;4.088;2022-09-12T12:18:00;39.80;35.70
32217;DHT22;18709;51.140;4.088;2022-09-12T12:20:27;39.90;35.20
32217;DHT22;18709;51.140;4.088;2022-09-12T12:22:53;40.20;35.20
32217;DHT22;18709;51.140;4.088;2022-09-12T12:27:58;40.20;34.90
32217;DHT22;18709;51.140;4.088;2022-09-12T12:36:01;40.40;34.90
32217;DHT22;18709;51.140;4.088;2022-09-12T12:38:37;40.30;34.00
32217;DHT22;18709;51.140;4.088;2022-09-12T12:43:42;40.50;35.00
32217;DHT22;18709;51.140;4.088;2022-09-12T12:46:13;40.60;35.10
32217;DHT22;18709;51.140;4.088;2022-09-12T12:49:02;40.70;34.90
32217;DHT22;18709;51.140;4.088;2022-09-12T12:53:55;39.90;34.20
32217;DHT22;18709;51.140;4.088;2022-09-12T12:56:33;39.20;35.00
32217;DHT22;18709;51.140;4.088;2022-09-12T12:59:02;38.70;35.50
32217;DHT22;18709;51.140;4.088;2022-09-12T13:01:29;38.30;36.00
32217;DHT22;18709;51.140;4.088;2022-09-12T13:04:04;38.20;37.00
32217;DHT22;18709;51.140;4.088;2022-09-12T13:06:37;38.20;36.60
32217;DHT22;18709;51.140;4.088;2022-09-12T13:09:07;38.20;36.10
32217;DHT22;18709;51.140;4.088;2022-09-12T13:11:39;38.30;36.60
32217;DHT22;18709;51.140;4.088;2022-09-12T13:14:30;38.30;36.90
32217;DHT22;18709;51.140;4.088;2022-09-12T13:16:54;38.20;36.50
32217;DHT22;18709;51.140;4.088;2022-09-12T13:19:29;38.40;35.70
32217;DHT22;18709;51.140;4.088;2022-09-12T13:22:03;38.70;36.00
32217;DHT22;18709;51.140;4.088;2022-09-12T13:24:29;38.60;35.90
32217;DHT22;18709;51.140;4.088;2022-09-12T13:26:56;38.50;36.00
32217;DHT22;18709;51.140;4.088;2022-09-12T13:29:26;38.60;36.50
32217;DHT22;18709;51.140;4.088;2022-09-12T13:31:59;38.60;35.90
32217;DHT22;18709;51.140;4.088;2022-09-12T13:34:32;38.60;35.00
32217;DHT22;18709;51.140;4.088;2022-09-12T13:37:37;39.00;35.80
32217;DHT22;18709;51.140;4.088;2022-09-12T13:42:52;39.10;35.60
32217;DHT22;18709;51.140;4.088;2022-09-12T13:45:22;38.90;35.70
32217;DHT22;18709;51.140;4.088;2022-09-12T13:47:59;39.00;35.00
32217;DHT22;18709;51.140;4.088;2022-09-12T13:50:59;39.10;35.70
32217;DHT22;18709;51.140;4.088;2022-09-12T13:53:35;38.80;36.30
32217;DHT22;18709;51.140;4.088;2022-09-12T13:56:02;39.00;35.70
32217;DHT22;18709;51.140;4.088;2022-09-12T13:58:32;38.10;36.40
32217;DHT22;18709;51.140;4.088;2022-09-12T14:01:09;38.30;35.60
32217;DHT22;18709;51.140;4.088;2022-09-12T14:03:52;38.70;35.40
32217;DHT22;18709;51.140;4.088;2022-09-12T14:06:51;39.20;35.30
32217;DHT22;18709;51.140;4.088;2022-09-12T14:09:24;39.70;35.00
32217;DHT22;18709;51.140;4.088;2022-09-12T14:11:51;40.00;34.90
32217;DHT22;18709;51.140;4.088;2022-09-12T14:14:38;40.20;34.50
32217;DHT22;18709;51.140;4.088;2022-09-12T14:17:18;40.40;34.60
32217;DHT22;18709;51.140;4.088;2022-09-12T14:19:48;40.60;34.00
32217;DHT22;18709;51.140;4.088;2022-09-12T14:22:14;40.60;33.80
32217;DHT22;18709;51.140;4.088;2022-09-12T14:24:45;40.80;33.80
32217;DHT22;18709;51.140;4.088;2022-09-12T14:27:21;41.00;33.50
32217;DHT22;18709;51.140;4.088;2022-09-12T14:29:49;41.10;33.00
32217;DHT22;18709;51.140;4.088;2022-09-12T14:32:27;41.10;32.80
32217;DHT22;18709;51.140;4.088;2022-09-12T14:37:37;40.40;33.60
32217;DHT22;18709;51.140;4.088;2022-09-12T14:40:18;40.00;33.40
32217;DHT22;18709;51.140;4.088;2022-09-12T14:42:45;39.80;34.10
32217;DHT22;18709;51.140;4.088;2022-09-12T14:47:49;39.80;34.30
32217;DHT22;18709;51.140;4.088;2022-09-12T14:50:17;39.90;34.30
32217;DHT22;18709;51.140;4.088;2022-09-12T14:52:45;40.20;33.90
32217;DHT22;18709;51.140;4.088;2022-09-12T14:55:22;40.50;33.70
32217;DHT22;18709;51.140;4.088;2022-09-12T14:58:13;40.60;33.50
32217;DHT22;18709;51.140;4.088;2022-09-12T15:00:55;40.80;33.10
32217;DHT22;18709;51.140;4.088;2022-09-12T15:03:35;40.60;33.10
32217;DHT22;18709;51.140;4.088;2022-09-12T15:06:03;40.50;32.90
32217;DHT22;18709;51.140;4.088;2022-09-12T15:08:30;40.40;33.00
32217;DHT22;18709;51.140;4.088;2022-09-12T15:10:57;40.00;34.10
32217;DHT22;18709;51.140;4.088;2022-09-12T15:13:27;39.70;34.00
32217;DHT22;18709;51.140;4.088;2022-09-12T15:15:57;39.30;34.20
32217;DHT22;18709;51.140;4.088;2022-09-12T15:18:26;38.70;34.60
32217;DHT22;18709;51.140;4.088;2022-09-12T15:20:55;38.30;35.10
32217;DHT22;18709;51.140;4.088;2022-09-12T15:25:50;38.30;35.60
32217;DHT22;18709;51.140;4.088;2022-09-12T15:28:21;38.30;35.10
32217;DHT22;18709;51.140;4.088;2022-09-12T15:30:49;38.30;35.50
32217;DHT22;18709;51.140;4.088;2022-09-12T15:33:20;38.10;35.20
32217;DHT22;18709;51.140;4.088;2022-09-12T15:35:48;38.00;35.30
32217;DHT22;18709;51.140;4.088;2022-09-12T15:38:13;37.80;35.50
32217;DHT22;18709;51.140;4.088;2022-09-12T15:40:39;37.80;36.00
32217;DHT22;18709;51.140;4.088;2022-09-12T15:43:05;37.40;36.40
32217;DHT22;18709;51.140;4.088;2022-09-12T15:45:32;37.00;36.50
32217;DHT22;18709;51.140;4.088;2022-09-12T15:47:59;36.40;37.00
32217;DHT22;18709;51.140;4.088;2022-09-12T15:50:26;35.90;37.20
32217;DHT22;18709;51.140;4.088;2022-09-12T15:52:53;35.70;37.80
32217;DHT22;18709;51.140;4.088;2022-09-12T15:55:22;35.70;38.20
32217;DHT22;18709;51.140;4.088;2022-09-12T15:57:48;35.80;38.00
32217;DHT22;18709;51.140;4.088;2022-09-12T16:00:15;35.80;38.30
32217;DHT22;18709;51.140;4.088;2022-09-12T16:02:42;35.70;38.10
32217;DHT22;18709;51.140;4.088;2022-09-12T16:05:23;35.60;38.10
32217;DHT22;18709;51.140;4.088;2022-09-12T16:07:53;35.50;38.30
32217;DHT22;18709;51.140;4.088;2022-09-12T16:10:21;35.40;38.10
32217;DHT22;18709;51.140;4.088;2022-09-12T16:12:47;35.20;38.20
32217;DHT22;18709;51.140;4.088;2022-09-12T16:15:17;35.10;38.20
32217;DHT22;18709;51.140;4.088;2022-09-12T16:17:43;35.30;38.80
32217;DHT22;18709;51.140;4.088;2022-09-12T16:20:09;35.10;38.60
32217;DHT22;18709;51.140;4.088;2022-09-12T16:22:36;35.00;38.60
32217;DHT22;18709;51.140;4.088;2022-09-12T16:25:02;34.70;38.80
32217;DHT22;18709;51.140;4.088;2022-09-12T16:27:27;34.50;39.40
32217;DHT22;18709;51.140;4.088;2022-09-12T16:29:53;34.20;39.80
32217;DHT22;18709;51.140;4.088;2022-09-12T16:32:19;34.00;40.70
32217;DHT22;18709;51.140;4.088;2022-09-12T16:34:44;33.70;41.00
32217;DHT22;18709;51.140;4.088;2022-09-12T16:37:10;33.40;41.00
32217;DHT22;18709;51.140;4.088;2022-09-12T16:39:36;33.20;41.10
32217;DHT22;18709;51.140;4.088;2022-09-12T16:42:04;33.10;41.50
32217;DHT22;18709;51.140;4.088;2022-09-12T16:44:29;32.90;41.70
32217;DHT22;18709;51.140;4.088;2022-09-12T16:46:55;32.80;42.50
32217;DHT22;18709;51.140;4.088;2022-09-12T16:49:21;32.70;43.00
32217;DHT22;18709;51.140;4.088;2022-09-12T16:51:47;32.60;43.00
32217;DHT22;18709;51.140;4.088;2022-09-12T16:54:13;32.40;43.20
32217;DHT22;18709;51.140;4.088;2022-09-12T16:56:40;32.30;43.10
32217;DHT22;18709;51.140;4.088;2022-09-12T16:59:06;32.20;43.20
32217;DHT22;18709;51.140;4.088;2022-09-12T17:01:34;32.10;43.90
32217;DHT22;18709;51.140;4.088;2022-09-12T17:04:00;31.90;44.00
32217;DHT22;18709;51.140;4.088;2022-09-12T17:06:26;31.80;44.30
32217;DHT22;18709;51.140;4.088;2022-09-12T17:08:54;31.70;44.90
32217;DHT22;18709;51.140;4.088;2022-09-12T17:11:25;31.60;44.90
32217;DHT22;18709;51.140;4.088;2022-09-12T17:13:53;31.50;45.50
32217;DHT22;18709;51.140;4.088;2022-09-12T17:16:20;31.40;46.00
32217;DHT22;18709;51.140;4.088;2022-09-12T17:18:47;31.20;46.30
32217;DHT22;18709;51.140;4.088;2022-09-12T17:21:13;31.10;46.80
32217;DHT22;18709;51.140;4.088;2022-09-12T17:23:39;31.10;46.90
32217;DHT22;18709;51.140;4.088;2022-09-12T17:26:06;30.90;46.90
32217;DHT22;18709;51.140;4.088;2022-09-12T17:28:32;30.80;47.10
32217;DHT22;18709;51.140;4.088;2022-09-12T17:31:02;30.70;48.00
32217;DHT22;18709;51.140;4.088;2022-09-12T17:33:28;30.60;48.70
32217;DHT22;18709;51.140;4.088;2022-09-12T17:35:58;30.50;49.20
32217;DHT22;18709;51.140;4.088;2022-09-12T17:38:24;30.30;49.70
32217;DHT22;18709;51.140;4.088;2022-09-12T17:40:50;30.10;50.10
32217;DHT22;18709;51.140;4.088;2022-09-12T17:43:16;30.00;50.80
32217;DHT22;18709;51.140;4.088;2022-09-12T17:45:42;29.90;51.00
32217;DHT22;18709;51.140;4.088;2022-09-12T17:48:09;29.80;50.90
32217;DHT22;18709;51.140;4.088;2022-09-12T17:50:36;29.60;51.40
32217;DHT22;18709;51.140;4.088;2022-09-12T17:53:03;29.50;52.00
32217;DHT22;18709;51.140;4.088;2022-09-12T17:55:29;29.40;52.40
32217;DHT22;18709;51.140;4.088;2022-09-12T17:57:58;29.20;52.70
32217;DHT22;18709;51.140;4.088;2022-09-12T18:00:28;29.10;53.30
32217;DHT22;18709;51.140;4.088;2022-09-12T18:03:13;29.00;53.80
32217;DHT22;18709;51.140;4.088;2022-09-12T18:05:54;28.80;54.10
32217;DHT22;18709;51.140;4.088;2022-09-12T18:08:21;28.70;54.40